Orlando, Florida
Current Conditions -  °F | °C
As of 7:53 AM on Saturday 25 Oct 2014 (Local Time) from KORL Reporting Station
Clear Clear  
Wind Chill: 64°   Ceiling: Unl
Heat Index: 64°   Visibility: 10mi
Dew Point: 52°   Wind: 6mph
Humidity: 65%   Direction: 340°NNW
Pressure: 29.98"   Gusts: NA
Location:  28.54°N, 81.38°W
Report Text: KORL 251153Z 34005KT 10SM CLR 18/11 A2998 RMK AO2 SLP155 T01780111 10189 20178 53008
Loading
Personal Weather Stations






























Interactive Weather Map
Tropical Storm Tracking
New forecast layout! Learn more

10-Day Weather Forecast

Advertisements
Track Severe Weather on mobile